createdAt,value
2017-08-21T00:02:23.910Z,40.10
2017-08-21T00:04:51.706Z,40.10
2017-08-21T00:07:19.270Z,39.90
2017-08-21T00:09:47.586Z,39.90
2017-08-21T00:12:15.183Z,40.00
2017-08-21T00:14:43.550Z,40.00
2017-08-21T00:17:11.122Z,40.10
2017-08-21T00:19:39.503Z,40.00
2017-08-21T00:22:07.097Z,40.00
2017-08-21T00:24:35.402Z,40.00
2017-08-21T00:27:03.058Z,40.00
2017-08-21T00:29:31.334Z,40.10
2017-08-21T00:31:58.926Z,40.00
2017-08-21T00:34:26.546Z,40.00
2017-08-21T00:36:54.135Z,40.00
2017-08-21T00:39:21.759Z,39.80
2017-08-21T00:41:49.394Z,39.80
2017-08-21T00:44:16.987Z,39.70
2017-08-21T00:46:44.586Z,39.80
2017-08-21T00:49:12.254Z,39.70
2017-08-21T00:51:39.847Z,39.80
2017-08-21T00:54:07.422Z,39.90
2017-08-21T00:56:35.043Z,40.00
2017-08-21T00:59:02.631Z,39.80
2017-08-21T01:01:30.238Z,39.60
2017-08-21T01:03:57.858Z,39.60
2017-08-21T01:06:25.455Z,39.70
2017-08-21T01:08:53.049Z,39.70
2017-08-21T01:11:20.634Z,39.60
2017-08-21T01:13:48.194Z,39.50
2017-08-21T01:16:15.755Z,39.50
2017-08-21T01:18:43.366Z,39.50
2017-08-21T01:21:10.966Z,39.70
2017-08-21T01:23:38.555Z,39.70
2017-08-21T01:26:06.154Z,39.80
2017-08-21T01:28:33.718Z,40.00
2017-08-21T01:31:01.342Z,39.70
2017-08-21T01:33:28.942Z,39.60
2017-08-21T01:35:56.518Z,39.70
2017-08-21T01:38:24.103Z,39.70
2017-08-21T01:40:51.727Z,39.70
2017-08-21T01:43:19.318Z,40.00
2017-08-21T01:45:46.914Z,40.10
2017-08-21T01:48:14.548Z,39.70
2017-08-21T01:50:42.143Z,39.70
2017-08-21T01:53:10.630Z,39.60
2017-08-21T01:55:38.250Z,39.80
2017-08-21T01:58:05.810Z,39.50
2017-08-21T02:00:33.423Z,39.50
2017-08-21T02:03:01.030Z,39.50
2017-08-21T02:05:28.615Z,39.60
2017-08-21T02:07:56.183Z,39.60
2017-08-21T02:10:23.794Z,39.70
2017-08-21T02:12:51.718Z,40.00
2017-08-21T02:15:19.291Z,39.80
2017-08-21T02:17:47.663Z,40.00
2017-08-21T02:20:15.254Z,39.90
2017-08-21T02:22:43.600Z,39.60
2017-08-21T02:25:11.190Z,39.90
2017-08-21T02:27:39.531Z,39.90
2017-08-21T02:30:07.106Z,39.90
2017-08-21T02:32:35.506Z,39.90
2017-08-21T02:35:03.102Z,39.90
2017-08-21T02:37:31.412Z,39.90
2017-08-21T02:39:59.037Z,39.80
2017-08-21T02:42:26.650Z,39.80
2017-08-21T02:44:54.218Z,39.80
2017-08-21T02:47:21.806Z,39.70
2017-08-21T02:49:49.366Z,39.80
2017-08-21T02:52:16.940Z,39.80
2017-08-21T02:54:44.530Z,39.90
2017-08-21T02:57:12.086Z,39.50
2017-08-21T02:59:39.658Z,39.40
2017-08-21T03:02:07.249Z,39.90
2017-08-21T03:04:34.850Z,39.70
2017-08-21T03:07:02.426Z,39.80
2017-08-21T03:09:30.051Z,39.90
2017-08-21T03:11:57.650Z,39.90
2017-08-21T03:14:25.262Z,39.90
2017-08-21T03:16:52.887Z,39.90
2017-08-21T03:19:20.712Z,39.80
2017-08-21T03:21:48.306Z,39.80
2017-08-21T03:24:16.134Z,39.70
2017-08-21T03:26:43.704Z,39.70
2017-08-21T03:29:11.268Z,39.70
2017-08-21T03:31:38.887Z,39.80
2017-08-21T03:34:06.482Z,39.80
2017-08-21T03:36:34.050Z,39.90
2017-08-21T03:39:01.638Z,39.80
2017-08-21T03:41:29.199Z,39.90
2017-08-21T03:43:56.790Z,39.90
2017-08-21T03:46:24.398Z,39.80
2017-08-21T03:48:51.971Z,39.70
2017-08-21T03:51:19.685Z,39.70
2017-08-21T03:53:47.274Z,39.60
2017-08-21T03:56:15.073Z,39.60
2017-08-21T03:58:42.634Z,39.70
2017-08-21T04:01:10.251Z,39.70
2017-08-21T04:03:37.814Z,39.70
2017-08-21T04:06:05.374Z,39.60
2017-08-21T04:08:32.983Z,39.80
2017-08-21T04:11:00.566Z,39.80
2017-08-21T04:13:28.130Z,39.80
2017-08-21T04:15:55.758Z,39.60
2017-08-21T04:18:23.319Z,39.70
2017-08-21T04:20:51.123Z,39.80
2017-08-21T04:23:18.742Z,39.90
2017-08-21T04:25:46.310Z,39.70
2017-08-21T04:28:13.866Z,39.60
2017-08-21T04:30:41.594Z,39.60
2017-08-21T04:33:09.158Z,39.60
2017-08-21T04:35:37.503Z,39.60
2017-08-21T04:38:05.115Z,39.80
2017-08-21T04:40:33.471Z,39.80
2017-08-21T04:43:01.064Z,39.80
2017-08-21T04:45:29.445Z,39.80
2017-08-21T04:47:57.694Z,39.80
2017-08-21T04:50:25.314Z,39.60
2017-08-21T04:52:52.950Z,40.50
2017-08-21T04:55:20.536Z,39.80
2017-08-21T04:57:48.102Z,40.00
2017-08-21T05:00:15.690Z,40.00
2017-08-21T05:02:43.278Z,39.90
2017-08-21T05:05:10.882Z,39.90
2017-08-21T05:07:38.507Z,40.00
2017-08-21T05:10:06.074Z,40.00
2017-08-21T05:12:33.667Z,40.00
2017-08-21T05:15:01.274Z,40.00
2017-08-21T05:17:28.839Z,39.90
2017-08-21T05:19:56.426Z,39.80
2017-08-21T05:22:24.050Z,39.90
2017-08-21T05:24:51.614Z,39.80
2017-08-21T05:27:19.202Z,39.70
2017-08-21T05:29:46.794Z,39.60
2017-08-21T05:32:14.354Z,39.60
2017-08-21T05:34:41.917Z,39.40
2017-08-21T05:37:10.130Z,39.30
2017-08-21T05:39:37.698Z,39.60
2017-08-21T05:42:05.478Z,39.50
2017-08-21T05:44:33.071Z,39.50
2017-08-21T05:47:00.638Z,39.60
2017-08-21T05:49:28.226Z,39.70
2017-08-21T05:51:55.814Z,39.80
2017-08-21T05:54:23.378Z,39.80
2017-08-21T05:56:50.966Z,40.00
2017-08-21T05:59:18.595Z,40.00
2017-08-21T06:01:46.191Z,39.90
2017-08-21T06:04:13.783Z,40.20
2017-08-21T06:06:41.374Z,40.40
2017-08-21T06:09:08.963Z,40.50
2017-08-21T06:11:36.558Z,40.40
2017-08-21T06:14:04.174Z,40.20
2017-08-21T06:16:31.771Z,40.10
2017-08-21T06:18:59.342Z,39.90
2017-08-21T06:21:26.958Z,39.80
2017-08-21T06:23:54.534Z,39.70
2017-08-21T06:26:22.122Z,39.70
2017-08-21T06:28:49.718Z,39.70
2017-08-21T06:31:17.315Z,39.70
2017-08-21T06:33:44.894Z,39.60
2017-08-21T06:36:12.962Z,39.70
2017-08-21T06:38:40.554Z,39.70
2017-08-21T06:41:08.146Z,39.70
2017-08-21T06:43:36.558Z,39.60
2017-08-21T06:46:04.150Z,39.60
2017-08-21T06:48:31.722Z,39.60
2017-08-21T06:50:59.330Z,39.70
2017-08-21T06:53:26.939Z,39.70
2017-08-21T06:55:54.506Z,39.70
2017-08-21T06:58:22.118Z,39.70
2017-08-21T07:00:49.751Z,39.70
2017-08-21T07:03:17.330Z,39.80
2017-08-21T07:05:44.950Z,39.80
2017-08-21T07:08:12.586Z,39.80
2017-08-21T07:10:40.194Z,39.90
2017-08-21T07:13:07.792Z,39.80
2017-08-21T07:15:35.358Z,39.90
2017-08-21T07:18:02.923Z,39.90
2017-08-21T07:20:30.516Z,39.90
2017-08-21T07:22:58.299Z,40.00
2017-08-21T07:25:25.931Z,39.90
2017-08-21T07:27:53.563Z,39.90
2017-08-21T07:30:21.279Z,40.00
2017-08-21T07:32:56.654Z,40.00
2017-08-21T07:35:24.266Z,40.00
2017-08-21T07:37:51.858Z,40.00
2017-08-21T07:40:20.840Z,40.00
2017-08-21T07:42:48.443Z,40.00
2017-08-21T07:45:16.290Z,40.00
2017-08-21T07:47:43.883Z,40.00
2017-08-21T07:50:12.230Z,40.10
2017-08-21T07:52:39.822Z,40.10
2017-08-21T07:55:08.138Z,40.10
2017-08-21T07:57:35.758Z,40.10
2017-08-21T08:00:04.115Z,40.20
2017-08-21T08:02:31.678Z,40.20
2017-08-21T08:05:00.526Z,40.60
2017-08-21T08:07:28.096Z,40.20
2017-08-21T08:09:55.663Z,40.20
2017-08-21T08:12:23.250Z,40.20
2017-08-21T08:14:50.824Z,40.20
2017-08-21T08:17:18.413Z,40.30
2017-08-21T08:19:46.011Z,40.20
2017-08-21T08:22:13.601Z,40.30
2017-08-21T08:24:41.170Z,40.20
2017-08-21T08:27:08.791Z,40.30
2017-08-21T08:29:36.359Z,40.30
2017-08-21T08:32:03.948Z,40.30
2017-08-21T08:34:31.579Z,40.30
2017-08-21T08:36:59.146Z,40.30
2017-08-21T08:39:26.714Z,40.30
2017-08-21T08:41:54.338Z,40.30
2017-08-21T08:44:21.931Z,40.30
2017-08-21T08:46:49.495Z,40.30
2017-08-21T08:49:17.090Z,40.40
2017-08-21T08:51:44.719Z,40.40
2017-08-21T08:54:12.335Z,40.40
2017-08-21T08:56:40.290Z,40.40
2017-08-21T08:59:07.857Z,40.40
2017-08-21T09:01:35.430Z,40.40
2017-08-21T09:04:03.023Z,40.40
2017-08-21T09:06:30.588Z,40.50
2017-08-21T09:08:58.179Z,40.40
2017-08-21T09:11:25.777Z,40.50
2017-08-21T09:13:53.350Z,40.40
2017-08-21T09:16:20.910Z,40.50
2017-08-21T09:18:48.530Z,40.50
2017-08-21T09:21:16.118Z,40.50
2017-08-21T09:23:43.686Z,40.50
2017-08-21T09:26:11.282Z,40.50
2017-08-21T09:28:39.002Z,40.50
2017-08-21T09:31:06.583Z,40.50
2017-08-21T09:33:34.198Z,40.50
2017-08-21T09:36:01.818Z,40.50
2017-08-21T09:38:29.413Z,40.50
2017-08-21T09:40:57.006Z,40.50
2017-08-21T09:43:24.602Z,40.50
2017-08-21T09:45:52.198Z,40.60
2017-08-21T09:48:19.791Z,40.60
2017-08-21T09:50:47.379Z,40.60
2017-08-21T09:53:14.973Z,40.60
2017-08-21T09:55:42.566Z,40.60
2017-08-21T09:58:10.134Z,40.60
2017-08-21T10:00:38.154Z,40.50
2017-08-21T10:03:05.742Z,40.60
2017-08-21T10:05:33.302Z,40.60
2017-08-21T10:08:01.066Z,40.60
2017-08-21T10:10:28.658Z,40.70
2017-08-21T10:12:56.219Z,40.60
2017-08-21T10:15:23.783Z,40.70
2017-08-21T10:17:51.398Z,40.70
2017-08-21T10:20:19.006Z,40.70
2017-08-21T10:22:46.595Z,40.70
2017-08-21T10:25:14.191Z,40.70
2017-08-21T10:27:41.794Z,40.70
2017-08-21T10:30:09.422Z,40.70
2017-08-21T10:32:37.229Z,40.60
2017-08-21T10:35:05.582Z,40.70
2017-08-21T10:37:33.174Z,40.80
2017-08-21T10:40:00.767Z,40.70
2017-08-21T10:42:28.354Z,40.70
2017-08-21T10:44:55.955Z,40.70
2017-08-21T10:47:23.574Z,40.80
2017-08-21T10:49:51.134Z,40.80
2017-08-21T10:52:18.734Z,40.70
2017-08-21T10:54:46.334Z,40.80
2017-08-21T10:57:13.938Z,40.80
2017-08-21T10:59:41.722Z,40.70
2017-08-21T11:02:09.314Z,40.70
2017-08-21T11:04:37.307Z,40.80
2017-08-21T11:07:04.890Z,40.70
2017-08-21T11:09:32.524Z,40.70
2017-08-21T11:12:00.090Z,40.70
2017-08-21T11:14:27.684Z,40.80
2017-08-21T11:16:55.289Z,41.00
2017-08-21T11:19:22.862Z,40.80
2017-08-21T11:21:50.423Z,40.80
2017-08-21T11:24:18.014Z,40.80
2017-08-21T11:26:45.582Z,40.80
2017-08-21T11:29:13.167Z,40.80
2017-08-21T11:31:40.782Z,40.80
2017-08-21T11:34:08.369Z,40.70
2017-08-21T11:36:35.934Z,40.90
2017-08-21T11:39:03.666Z,40.70
2017-08-21T11:41:31.264Z,40.80
2017-08-21T11:43:58.838Z,40.90
2017-08-21T11:46:26.455Z,40.90
2017-08-21T11:48:54.047Z,40.90
2017-08-21T11:51:22.434Z,40.90
2017-08-21T11:53:50.032Z,40.90
2017-08-21T11:56:17.600Z,41.00
2017-08-21T11:58:45.162Z,40.80
2017-08-21T12:01:12.775Z,40.90
2017-08-21T12:03:40.338Z,40.90
2017-08-21T12:06:07.928Z,40.90
2017-08-21T12:08:35.550Z,40.90
2017-08-21T12:11:03.119Z,40.90
2017-08-21T12:13:30.706Z,40.90
2017-08-21T12:15:59.107Z,40.90
2017-08-21T12:18:26.703Z,40.90
2017-08-21T12:20:55.024Z,40.90
2017-08-21T12:23:22.643Z,41.00
2017-08-21T12:25:50.927Z,40.70
2017-08-21T12:28:18.890Z,41.00
2017-08-21T12:30:46.490Z,41.00
2017-08-21T12:33:14.050Z,41.00
2017-08-21T12:35:41.799Z,41.00
2017-08-21T12:38:09.423Z,40.90
2017-08-21T12:40:36.992Z,41.00
2017-08-21T12:43:04.552Z,41.00
2017-08-21T12:45:32.659Z,40.90
2017-08-21T12:48:00.250Z,40.90
2017-08-21T12:50:27.814Z,40.90
2017-08-21T12:52:55.406Z,41.00
2017-08-21T12:55:23.100Z,41.00
2017-08-21T12:57:50.686Z,41.00
2017-08-21T13:00:18.287Z,41.00
2017-08-21T13:02:45.880Z,41.00
2017-08-21T13:05:13.454Z,41.00
2017-08-21T13:07:41.078Z,41.00
2017-08-21T13:10:08.662Z,41.00
2017-08-21T13:12:36.250Z,41.00
2017-08-21T13:15:03.910Z,41.00
2017-08-21T13:17:31.496Z,41.00
2017-08-21T13:19:59.102Z,41.00
2017-08-21T13:22:26.700Z,41.00
2017-08-21T13:24:54.288Z,41.00
2017-08-21T13:27:21.878Z,41.00
2017-08-21T13:29:49.475Z,41.00
2017-08-21T13:32:17.042Z,41.00
2017-08-21T13:34:44.634Z,41.10
2017-08-21T13:37:12.251Z,41.10
2017-08-21T13:39:39.841Z,41.10
2017-08-21T13:42:07.415Z,41.10
2017-08-21T13:44:35.091Z,41.10
2017-08-21T13:47:02.714Z,41.10
2017-08-21T13:49:30.308Z,41.10
2017-08-21T13:51:57.978Z,41.10
2017-08-21T13:54:25.567Z,41.10
2017-08-21T13:56:53.176Z,41.10
2017-08-21T13:59:20.794Z,41.10
2017-08-21T14:01:48.359Z,41.10
2017-08-21T14:04:15.952Z,41.10
2017-08-21T14:06:43.579Z,41.10
2017-08-21T14:09:11.146Z,41.10
2017-08-21T14:11:38.728Z,41.10
2017-08-21T14:14:07.395Z,41.10
2017-08-21T14:16:34.951Z,41.80
2017-08-21T14:19:02.537Z,41.10
2017-08-21T14:21:30.143Z,41.10
2017-08-21T14:23:57.743Z,41.20
2017-08-21T14:26:25.335Z,41.20
2017-08-21T14:28:52.966Z,41.20
2017-08-21T14:31:20.562Z,41.20
2017-08-21T14:33:48.135Z,41.20
2017-08-21T14:36:15.755Z,41.20
2017-08-21T14:38:43.322Z,41.20
2017-08-21T14:41:10.886Z,41.20
2017-08-21T14:43:38.803Z,41.90
2017-08-21T14:46:07.567Z,41.20
2017-08-21T14:48:35.723Z,41.90
2017-08-21T14:51:03.335Z,41.20
2017-08-21T14:53:30.898Z,41.20
2017-08-21T14:55:58.466Z,41.20
2017-08-21T14:58:26.618Z,41.20
2017-08-21T15:00:54.184Z,41.20
2017-08-21T15:03:21.775Z,41.30
2017-08-21T15:05:49.390Z,41.20
2017-08-21T15:08:16.983Z,41.20
2017-08-21T15:10:44.570Z,41.20
2017-08-21T15:13:12.174Z,41.20
2017-08-21T15:15:39.738Z,41.20
2017-08-21T15:18:07.323Z,41.20
2017-08-21T15:20:34.910Z,41.30
2017-08-21T15:23:02.486Z,41.30
2017-08-21T15:25:30.079Z,41.30
2017-08-21T15:27:57.695Z,41.30
2017-08-21T15:30:25.291Z,41.30
2017-08-21T15:32:52.887Z,41.30
2017-08-21T15:35:20.527Z,41.30
2017-08-21T15:37:48.106Z,41.30
2017-08-21T15:40:16.006Z,41.30
2017-08-21T15:42:43.603Z,41.30
2017-08-21T15:45:11.195Z,41.30
2017-08-21T15:47:38.786Z,41.30
2017-08-21T15:50:06.395Z,41.30
2017-08-21T15:52:33.983Z,41.40
2017-08-21T15:55:01.551Z,41.40
2017-08-21T15:57:29.176Z,41.30
2017-08-21T15:59:56.768Z,41.30
2017-08-21T16:02:24.334Z,41.40
2017-08-21T16:04:51.922Z,41.40
2017-08-21T16:07:19.512Z,41.40
2017-08-21T16:09:47.080Z,41.40
2017-08-21T16:12:14.695Z,41.40
2017-08-21T16:14:42.291Z,41.40
2017-08-21T16:17:09.884Z,41.40
2017-08-21T16:19:37.474Z,41.40
2017-08-21T16:22:05.064Z,41.40
2017-08-21T16:24:32.631Z,41.40
2017-08-21T16:27:00.250Z,41.40
2017-08-21T16:29:27.845Z,41.40
2017-08-21T16:31:55.444Z,41.40
2017-08-21T16:34:23.064Z,41.40
2017-08-21T16:36:50.663Z,41.30
2017-08-21T16:39:18.238Z,41.40
2017-08-21T16:41:45.831Z,41.40
2017-08-21T16:44:13.422Z,41.50
2017-08-21T16:46:41.843Z,41.50
2017-08-21T16:49:09.444Z,41.50
2017-08-21T16:51:37.799Z,38.90
2017-08-21T16:54:05.395Z,33.40
2017-08-21T16:56:33.015Z,30.70
2017-08-21T16:59:01.679Z,29.40
2017-08-21T17:01:29.271Z,28.50
2017-08-21T17:03:56.867Z,28.40
2017-08-21T17:06:24.467Z,27.80
2017-08-21T17:08:52.052Z,28.00
2017-08-21T17:11:19.642Z,28.50
2017-08-21T17:13:47.235Z,28.30
2017-08-21T17:16:14.803Z,28.40
2017-08-21T17:18:42.495Z,28.30
2017-08-21T17:21:10.767Z,28.50
2017-08-21T17:23:38.363Z,28.40
2017-08-21T17:26:06.138Z,28.00
2017-08-21T17:28:34.741Z,27.80
2017-08-21T17:31:02.728Z,27.70
2017-08-21T17:33:30.354Z,27.90
2017-08-21T17:35:57.966Z,27.80
2017-08-21T17:38:27.278Z,27.80
2017-08-21T17:40:56.534Z,27.50
2017-08-21T17:43:25.627Z,27.50
2017-08-21T17:45:53.222Z,27.50
2017-08-21T17:48:20.810Z,27.50
2017-08-21T17:50:48.370Z,27.40
2017-08-21T17:53:15.955Z,27.30
2017-08-21T17:55:43.582Z,27.20
2017-08-21T17:58:11.150Z,27.20
2017-08-21T18:00:38.839Z,27.20
2017-08-21T18:03:06.459Z,27.90
2017-08-21T18:05:34.030Z,27.70
2017-08-21T18:08:01.594Z,27.60
2017-08-21T18:10:29.212Z,27.50
2017-08-21T18:12:56.806Z,27.50
2017-08-21T18:15:24.375Z,27.60
2017-08-21T18:17:51.966Z,27.40
2017-08-21T18:20:19.530Z,27.40
2017-08-21T18:22:47.502Z,28.00
2017-08-21T18:25:15.122Z,27.90
2017-08-21T18:27:42.747Z,27.90
2017-08-21T18:30:10.315Z,27.80
2017-08-21T18:32:37.907Z,27.60
2017-08-21T18:35:06.325Z,27.70
2017-08-21T18:37:33.894Z,27.80
2017-08-21T18:40:01.486Z,27.80
2017-08-21T18:42:29.055Z,28.20
2017-08-21T18:44:56.622Z,28.60
2017-08-21T18:47:24.219Z,28.70
2017-08-21T18:49:51.810Z,28.80
2017-08-21T18:52:19.378Z,29.00
2017-08-21T18:54:46.970Z,29.60
2017-08-21T18:57:14.599Z,30.00
2017-08-21T18:59:42.754Z,30.10
2017-08-21T19:02:10.383Z,30.40
2017-08-21T19:04:37.979Z,30.90
2017-08-21T19:07:05.555Z,31.10
2017-08-21T19:09:33.147Z,31.30
2017-08-21T19:12:00.710Z,31.60
2017-08-21T19:14:28.298Z,31.90
2017-08-21T19:16:55.922Z,32.10
2017-08-21T19:19:23.558Z,32.20
2017-08-21T19:21:51.130Z,32.40
2017-08-21T19:24:18.723Z,32.60
2017-08-21T19:26:46.316Z,32.70
2017-08-21T19:29:13.927Z,32.90
2017-08-21T19:31:41.526Z,33.00
2017-08-21T19:34:09.090Z,32.90
2017-08-21T19:36:36.665Z,33.10
2017-08-21T19:39:04.354Z,33.20
2017-08-21T19:41:32.462Z,33.30
2017-08-21T19:44:00.051Z,33.50
2017-08-21T19:46:27.679Z,33.60
2017-08-21T19:48:55.271Z,33.60
2017-08-21T19:51:22.851Z,33.80
2017-08-21T19:53:50.479Z,33.80
2017-08-21T19:56:18.071Z,33.90
2017-08-21T19:58:45.648Z,34.10
2017-08-21T20:01:13.250Z,34.20
2017-08-21T20:03:40.811Z,34.20
2017-08-21T20:06:08.374Z,31.90
2017-08-21T20:08:35.990Z,31.40
2017-08-21T20:11:03.596Z,30.30
2017-08-21T20:13:31.166Z,30.20
2017-08-21T20:15:58.767Z,30.00
2017-08-21T20:18:26.335Z,29.80
2017-08-21T20:20:53.946Z,29.60
2017-08-21T20:23:23.548Z,29.50
2017-08-21T20:25:51.628Z,29.60
2017-08-21T20:28:19.227Z,29.20
2017-08-21T20:30:46.858Z,29.40
2017-08-21T20:33:14.460Z,29.50
2017-08-21T20:35:42.054Z,29.30
2017-08-21T20:38:09.675Z,29.10
2017-08-21T20:40:37.270Z,29.60
2017-08-21T20:43:04.834Z,29.30
2017-08-21T20:45:32.425Z,29.20
2017-08-21T20:48:00.019Z,29.00
2017-08-21T20:50:27.600Z,28.90
2017-08-21T20:52:55.219Z,28.90
2017-08-21T20:55:22.786Z,28.90
2017-08-21T20:57:50.375Z,28.90
2017-08-21T21:00:18.034Z,28.80
2017-08-21T21:02:45.634Z,28.60
2017-08-21T21:05:13.238Z,28.60
2017-08-21T21:07:40.833Z,28.60
2017-08-21T21:10:08.422Z,28.60
2017-08-21T21:12:36.019Z,28.60
2017-08-21T21:15:03.622Z,28.50
2017-08-21T21:17:31.214Z,28.50
2017-08-21T21:19:58.784Z,28.40
2017-08-21T21:22:26.374Z,28.40
2017-08-21T21:24:54.145Z,28.50
2017-08-21T21:27:21.734Z,28.60
2017-08-21T21:29:49.342Z,28.60
2017-08-21T21:32:17.587Z,28.50
2017-08-21T21:34:53.751Z,28.60
2017-08-21T21:37:22.331Z,28.60
2017-08-21T21:39:49.901Z,29.30
2017-08-21T21:42:17.494Z,28.60
2017-08-21T21:44:45.115Z,28.60
2017-08-21T21:47:12.691Z,28.60
2017-08-21T21:49:40.277Z,28.70
2017-08-21T21:52:07.866Z,28.80
2017-08-21T21:54:35.450Z,29.00
2017-08-21T21:57:03.022Z,29.20
2017-08-21T21:59:30.639Z,29.30
2017-08-21T22:01:58.210Z,29.10
2017-08-21T22:04:25.803Z,29.00
2017-08-21T22:06:54.266Z,29.10
2017-08-21T22:09:21.832Z,29.00
2017-08-21T22:11:49.418Z,28.90
2017-08-21T22:14:53.315Z,28.30
2017-08-21T22:17:20.908Z,28.60
2017-08-21T22:19:49.415Z,28.50
2017-08-21T22:22:17.334Z,28.50
2017-08-21T22:24:44.901Z,28.40
2017-08-21T22:27:12.464Z,28.30
2017-08-21T22:29:40.058Z,28.40
2017-08-21T22:32:07.623Z,28.20
2017-08-21T22:34:35.771Z,28.20
2017-08-21T22:37:03.391Z,28.20
2017-08-21T22:39:31.515Z,28.30
2017-08-21T22:41:59.078Z,28.50
2017-08-21T22:44:26.671Z,28.40
2017-08-21T22:46:54.254Z,28.40
2017-08-21T22:49:26.923Z,28.60
2017-08-21T22:51:54.646Z,28.50
2017-08-21T22:54:22.225Z,28.50
2017-08-21T22:56:49.815Z,28.50
2017-08-21T22:59:17.411Z,28.30
2017-08-21T23:01:45.001Z,28.30
2017-08-21T23:04:12.607Z,28.20
2017-08-21T23:06:40.202Z,28.20
2017-08-21T23:09:07.807Z,28.10
2017-08-21T23:11:35.914Z,28.20
2017-08-21T23:14:03.510Z,28.70
2017-08-21T23:16:31.103Z,28.20
2017-08-21T23:23:40.355Z,27.80
2017-08-21T23:26:08.385Z,28.40
2017-08-21T23:28:35.997Z,28.50
2017-08-21T23:31:03.595Z,28.40
2017-08-21T23:33:31.170Z,28.30
2017-08-21T23:35:59.706Z,28.20
2017-08-21T23:38:27.331Z,28.20
2017-08-21T23:40:54.918Z,28.20
2017-08-21T23:43:22.487Z,28.10
2017-08-21T23:45:50.100Z,28.20
2017-08-21T23:48:17.694Z,28.00
2017-08-21T23:50:45.295Z,28.00
2017-08-21T23:53:12.923Z,28.00
2017-08-21T23:55:40.490Z,28.00
2017-08-21T23:58:08.062Z,28.00
